createdAt,value
2018-06-21T00:48:52.227Z,4.95
2018-06-21T00:51:24.033Z,4.72
2018-06-21T00:53:56.181Z,4.45
2018-06-21T00:56:30.919Z,3.92
2018-06-21T00:59:04.020Z,3.78
2018-06-21T01:01:36.585Z,3.60
2018-06-21T01:04:08.345Z,3.90
2018-06-21T01:06:43.131Z,4.03
2018-06-21T01:09:16.321Z,4.25
2018-06-21T01:11:49.300Z,4.07
2018-06-21T01:14:24.023Z,4.15
2018-06-21T01:16:58.983Z,4.30
2018-06-21T01:19:33.569Z,4.62
2018-06-21T01:22:05.437Z,4.57
2018-06-21T01:24:39.058Z,5.32
2018-06-21T01:27:09.147Z,6.25
2018-06-21T01:29:44.361Z,6.03
2018-06-21T01:32:17.659Z,6.85
2018-06-21T01:34:50.745Z,7.30
2018-06-21T01:37:22.438Z,7.55
2018-06-21T01:39:57.321Z,6.80
2018-06-21T01:42:30.872Z,8.15
2018-06-21T01:45:04.278Z,8.45
2018-06-21T01:47:36.432Z,8.75
2018-06-21T01:50:08.927Z,9.20
2018-06-21T01:52:40.780Z,8.52
2018-06-21T01:55:10.475Z,9.40
2018-06-21T01:57:43.684Z,9.80
2018-06-21T02:00:13.884Z,11.30
2018-06-21T02:02:48.331Z,10.20
2018-06-21T02:05:20.093Z,12.80
2018-06-21T02:07:50.237Z,15.57
2018-06-21T02:10:22.439Z,18.25
2018-06-21T02:12:54.202Z,19.52
2018-06-21T02:15:26.003Z,21.52
2018-06-21T02:17:56.192Z,22.05
2018-06-21T02:20:30.906Z,21.73
2018-06-21T02:23:02.708Z,23.05
2018-06-21T02:25:34.421Z,20.33
2018-06-21T02:28:06.282Z,21.17
2018-06-21T02:30:41.389Z,20.60
2018-06-21T02:33:14.523Z,22.50
2018-06-21T02:35:49.282Z,24.05
2018-06-21T02:38:22.556Z,24.95
2018-06-21T02:40:55.853Z,24.63
2018-06-21T02:43:27.561Z,24.08
2018-06-21T02:46:00.914Z,24.12
2018-06-21T02:48:32.949Z,25.52
2018-06-21T02:51:04.580Z,24.10
2018-06-21T02:53:37.099Z,25.02
2018-06-21T02:56:09.062Z,25.75
2018-06-21T02:58:40.884Z,24.17
2018-06-21T03:01:14.806Z,25.30
2018-06-21T03:03:47.660Z,24.52
2018-06-21T03:06:19.423Z,25.10
2018-06-21T03:08:50.386Z,24.55
2018-06-21T03:11:20.411Z,24.55
2018-06-21T03:13:53.366Z,24.37
2018-06-21T03:16:26.738Z,25.17
2018-06-21T03:19:00.291Z,25.30
2018-06-21T03:21:31.910Z,25.27
2018-06-21T03:24:03.918Z,25.67
2018-06-21T03:26:35.512Z,25.62
2018-06-21T03:29:09.109Z,25.48
2018-06-21T03:31:42.353Z,24.15
2018-06-21T03:34:15.692Z,25.30
2018-06-21T03:36:47.325Z,24.30
2018-06-21T03:39:22.073Z,25.60
2018-06-21T03:41:53.781Z,25.12
2018-06-21T03:44:25.465Z,23.85
2018-06-21T03:46:57.064Z,24.30
2018-06-21T03:49:26.835Z,23.65
2018-06-21T03:52:00.302Z,23.65
2018-06-21T03:54:32.273Z,23.52
2018-06-21T03:57:04.452Z,23.10
2018-06-21T03:59:39.318Z,21.95
2018-06-21T04:02:14.006Z,20.45
2018-06-21T04:04:47.605Z,20.52
2018-06-21T04:07:22.314Z,19.52
2018-06-21T04:09:57.172Z,19.60
2018-06-21T04:12:29.918Z,18.50
2018-06-21T04:15:04.549Z,19.90
2018-06-21T04:17:39.682Z,17.90
2018-06-21T04:20:12.964Z,23.67
2018-06-21T04:22:48.557Z,18.90
2018-06-21T04:25:21.833Z,17.40
2018-06-21T04:27:56.686Z,17.15
2018-06-21T04:30:31.450Z,16.87
2018-06-21T04:33:03.304Z,16.45
2018-06-21T04:35:36.487Z,14.57
2018-06-21T04:38:08.642Z,15.35
2018-06-21T04:40:42.063Z,14.80
2018-06-21T04:43:16.797Z,15.52
2018-06-21T04:45:52.043Z,14.60
2018-06-21T04:48:23.924Z,13.77
2018-06-21T04:50:56.194Z,12.93
2018-06-21T04:53:28.199Z,10.93
2018-06-21T04:56:02.962Z,10.80
2018-06-21T04:58:37.534Z,7.85
2018-06-21T05:01:09.078Z,6.18
2018-06-21T05:03:40.934Z,5.43
2018-06-21T05:06:15.471Z,3.80
2018-06-21T05:08:50.355Z,3.85
2018-06-21T05:11:22.163Z,3.65
2018-06-21T05:13:52.367Z,3.25
2018-06-21T05:16:27.159Z,3.12
2018-06-21T05:19:01.892Z,3.15
2018-06-21T05:21:36.780Z,3.15
2018-06-21T05:24:11.779Z,3.45
2018-06-21T05:26:42.447Z,3.17
2018-06-21T05:29:16.471Z,3.42
2018-06-21T05:31:49.632Z,3.40
2018-06-21T05:34:23.571Z,2.42
2018-06-21T05:36:56.612Z,2.85
2018-06-21T05:39:28.360Z,3.17
2018-06-21T05:42:03.172Z,2.80
2018-06-21T05:44:34.832Z,2.47
2018-06-21T05:47:07.790Z,2.50
2018-06-21T05:49:40.887Z,3.03
2018-06-21T05:52:11.036Z,2.85
2018-06-21T05:54:42.907Z,2.78
2018-06-21T05:57:16.213Z,2.15
2018-06-21T05:59:48.719Z,2.97
2018-06-21T06:02:20.803Z,2.40
2018-06-21T06:04:52.315Z,2.40
2018-06-21T06:07:23.865Z,2.33
2018-06-21T06:09:56.123Z,2.47
2018-06-21T06:12:30.600Z,2.85
2018-06-21T06:15:05.125Z,3.17
2018-06-21T06:17:38.186Z,2.62
2018-06-21T06:20:12.909Z,2.42
2018-06-21T06:22:44.643Z,2.92
2018-06-21T06:25:19.523Z,3.42
2018-06-21T06:27:50.081Z,3.28
2018-06-21T06:30:21.832Z,2.80
2018-06-21T06:32:56.392Z,2.90
2018-06-21T06:35:32.675Z,2.75
2018-06-21T06:38:04.210Z,2.47
2018-06-21T06:40:38.647Z,2.55
2018-06-21T06:43:10.572Z,2.33
2018-06-21T06:45:45.095Z,2.15
2018-06-21T06:48:17.449Z,2.20
2018-06-21T06:50:50.443Z,1.80
2018-06-21T06:53:23.634Z,2.53
2018-06-21T06:55:56.975Z,2.28
2018-06-21T06:58:28.692Z,2.45
2018-06-21T07:01:01.857Z,2.03
2018-06-21T07:03:33.439Z,2.08
2018-06-21T07:06:06.814Z,1.95
2018-06-21T07:08:39.957Z,2.37
2018-06-21T07:11:11.683Z,2.58
2018-06-21T07:13:46.288Z,1.62
2018-06-21T07:16:17.723Z,2.58
2018-06-21T07:18:47.689Z,2.10
2018-06-21T07:21:19.330Z,1.73
2018-06-21T07:23:52.548Z,2.10
2018-06-21T07:26:24.103Z,2.25
2018-06-21T07:28:58.592Z,2.58
2018-06-21T07:31:33.121Z,2.22
2018-06-21T07:34:05.988Z,2.30
2018-06-21T07:36:40.862Z,2.30
2018-06-21T07:39:15.194Z,2.15
2018-06-21T07:41:48.160Z,2.00
2018-06-21T07:44:22.802Z,2.28
2018-06-21T07:46:56.186Z,2.58
2018-06-21T07:49:29.112Z,2.28
2018-06-21T07:52:00.432Z,2.78
2018-06-21T07:54:33.483Z,2.67
2018-06-21T07:57:05.699Z,2.90
2018-06-21T07:59:38.444Z,2.67
2018-06-21T08:02:10.075Z,2.12
2018-06-21T08:04:44.706Z,2.37
2018-06-21T08:07:17.656Z,2.78
2018-06-21T08:09:50.981Z,1.95
2018-06-21T08:12:21.002Z,2.62
2018-06-21T08:14:55.517Z,1.80
2018-06-21T08:17:25.634Z,1.58
2018-06-21T08:19:59.084Z,1.80
2018-06-21T08:22:33.601Z,1.92
2018-06-21T08:25:07.696Z,2.10
2018-06-21T08:27:39.133Z,2.15
2018-06-21T08:30:11.096Z,2.03
2018-06-21T08:32:45.480Z,1.58
2018-06-21T08:35:18.646Z,2.08
2018-06-21T08:37:51.503Z,1.90
2018-06-21T08:40:24.559Z,2.10
2018-06-21T08:42:56.216Z,2.37
2018-06-21T08:45:27.552Z,1.87
2018-06-21T08:48:00.537Z,1.77
2018-06-21T08:50:33.892Z,2.53
2018-06-21T08:53:06.410Z,2.40
2018-06-21T08:55:39.329Z,2.00
2018-06-21T08:58:13.547Z,1.85
2018-06-21T09:00:46.669Z,2.25
2018-06-21T09:03:18.027Z,2.40
2018-06-21T09:05:50.944Z,1.83
2018-06-21T09:08:23.956Z,2.45
2018-06-21T09:10:58.382Z,1.90
2018-06-21T09:13:40.010Z,1.98
2018-06-21T09:16:12.539Z,2.35
2018-06-21T09:18:46.945Z,2.22
2018-06-21T09:21:18.141Z,2.12
2018-06-21T09:23:50.390Z,1.60
2018-06-21T09:26:22.632Z,1.45
2018-06-21T09:28:51.943Z,2.37
2018-06-21T09:31:24.870Z,1.92
2018-06-21T09:33:56.889Z,2.08
2018-06-21T09:36:28.028Z,2.10
2018-06-21T09:39:17.095Z,1.85
2018-06-21T09:42:06.338Z,2.25
2018-06-21T09:44:56.735Z,1.60
2018-06-21T09:47:45.594Z,1.87
2018-06-21T09:50:20.302Z,2.37
2018-06-21T09:52:53.243Z,2.05
2018-06-21T09:55:24.717Z,2.20
2018-06-21T09:57:57.523Z,1.83
2018-06-21T10:00:45.606Z,2.08
2018-06-21T10:03:17.607Z,2.60
2018-06-21T10:05:49.937Z,2.30
2018-06-21T10:08:24.395Z,2.10
2018-06-21T10:10:56.284Z,1.90
2018-06-21T10:13:27.845Z,2.17
2018-06-21T10:16:00.732Z,2.30
2018-06-21T10:18:33.628Z,2.33
2018-06-21T10:21:05.636Z,1.83
2018-06-21T10:23:38.062Z,2.00
2018-06-21T10:26:07.970Z,2.37
2018-06-21T10:28:39.416Z,1.98
2018-06-21T10:31:12.399Z,2.17
2018-06-21T10:33:43.819Z,2.42
2018-06-21T10:36:17.757Z,2.58
2018-06-21T10:38:52.210Z,2.70
2018-06-21T10:41:25.204Z,2.05
2018-06-21T10:43:59.019Z,2.05
2018-06-21T10:46:35.457Z,2.25
2018-06-21T10:49:06.938Z,1.83
2018-06-21T10:51:40.308Z,1.75
2018-06-21T10:54:11.853Z,1.83
2018-06-21T10:56:46.446Z,1.92
2018-06-21T10:59:19.428Z,2.08
2018-06-21T11:01:52.620Z,1.48
2018-06-21T11:04:25.544Z,1.50
2018-06-21T11:06:58.522Z,1.85
2018-06-21T11:09:29.864Z,2.05
2018-06-21T11:12:01.319Z,2.40
2018-06-21T11:14:35.633Z,2.30
2018-06-21T11:17:07.189Z,2.30
2018-06-21T11:19:36.355Z,2.08
2018-06-21T11:22:10.768Z,2.30
2018-06-21T11:24:43.753Z,2.10
2018-06-21T11:27:18.246Z,2.25
2018-06-21T11:29:49.796Z,1.98
2018-06-21T11:32:20.708Z,1.70
2018-06-21T11:34:53.600Z,1.90
2018-06-21T11:37:24.513Z,2.28
2018-06-21T11:39:58.895Z,2.40
2018-06-21T11:42:31.844Z,2.47
2018-06-21T11:45:03.591Z,2.53
2018-06-21T11:47:36.688Z,2.45
2018-06-21T11:50:08.254Z,2.17
2018-06-21T11:52:41.260Z,2.25
2018-06-21T11:55:15.781Z,2.12
2018-06-21T11:57:48.693Z,2.15
2018-06-21T12:00:20.101Z,2.08
2018-06-21T12:02:54.597Z,2.12
2018-06-21T12:05:25.995Z,2.47
2018-06-21T12:07:59.055Z,2.47
2018-06-21T12:10:29.810Z,2.75
2018-06-21T12:13:04.074Z,2.33
2018-06-21T12:15:39.398Z,1.60
2018-06-21T12:18:10.972Z,2.10
2018-06-21T12:20:40.085Z,1.67
2018-06-21T12:23:12.277Z,2.22
2018-06-21T12:25:45.384Z,2.97
2018-06-21T12:28:18.942Z,2.45
2018-06-21T12:30:51.941Z,2.12
2018-06-21T12:33:21.883Z,1.90
2018-06-21T12:35:54.858Z,1.92
2018-06-21T12:38:26.412Z,2.22
2018-06-21T12:41:00.963Z,2.12
2018-06-21T12:43:33.812Z,2.25
2018-06-21T12:46:09.766Z,1.75
2018-06-21T12:48:42.741Z,2.05
2018-06-21T12:51:14.986Z,2.00
2018-06-21T12:53:45.449Z,1.50
2018-06-21T12:56:18.672Z,1.90
2018-06-21T12:58:50.797Z,2.10
2018-06-21T13:01:23.629Z,1.80
2018-06-21T13:03:55.039Z,1.67
2018-06-21T13:06:26.950Z,1.92
2018-06-21T13:09:32.861Z,2.17
2018-06-21T13:12:44.284Z,2.30
2018-06-21T13:15:17.299Z,2.08
2018-06-21T13:17:47.238Z,1.80
2018-06-21T13:20:17.261Z,2.15
2018-06-21T13:22:49.251Z,1.62
2018-06-21T13:25:23.465Z,1.80
2018-06-21T13:27:52.654Z,1.90
2018-06-21T13:30:28.090Z,1.90
2018-06-21T13:33:01.108Z,1.80
2018-06-21T13:35:32.598Z,2.10
2018-06-21T13:38:02.621Z,1.62
2018-06-21T13:40:33.971Z,1.85
2018-06-21T13:43:08.409Z,2.08
2018-06-21T13:45:39.789Z,1.90
2018-06-21T13:48:14.304Z,2.08
2018-06-21T13:50:45.779Z,1.62
2018-06-21T13:53:18.685Z,1.75
2018-06-21T13:55:49.027Z,1.70
2018-06-21T13:58:23.654Z,1.77
2018-06-21T14:00:58.400Z,2.00
2018-06-21T14:03:29.325Z,2.42
2018-06-21T14:06:01.475Z,2.12
2018-06-21T14:08:36.216Z,1.77
2018-06-21T14:11:09.516Z,1.95
2018-06-21T14:13:42.835Z,2.00
2018-06-21T14:16:14.891Z,2.17
2018-06-21T14:18:47.836Z,1.62
2018-06-21T14:21:19.246Z,1.60
2018-06-21T14:23:54.012Z,2.25
2018-06-21T14:26:25.931Z,1.75
2018-06-21T14:28:57.765Z,2.10
2018-06-21T14:31:31.059Z,2.00
2018-06-21T14:34:02.602Z,1.90
2018-06-21T14:36:37.535Z,1.30
2018-06-21T14:39:11.210Z,1.50
2018-06-21T14:41:46.075Z,1.67
2018-06-21T14:44:17.518Z,2.10
2018-06-21T14:46:50.535Z,1.87
2018-06-21T14:49:23.750Z,2.37
2018-06-21T14:51:56.669Z,1.87
2018-06-21T14:54:28.165Z,2.25
2018-06-21T14:57:00.935Z,1.95
2018-06-21T14:59:34.650Z,1.52
2018-06-21T15:02:06.252Z,1.67
2018-06-21T15:04:39.689Z,1.55
2018-06-21T15:07:11.407Z,2.28
2018-06-21T15:09:45.855Z,2.00
2018-06-21T15:12:18.788Z,2.15
2018-06-21T15:14:52.056Z,2.47
2018-06-21T15:17:24.959Z,1.92
2018-06-21T15:19:57.327Z,1.80
2018-06-21T15:22:27.556Z,1.90
2018-06-21T15:25:03.300Z,2.05
2018-06-21T15:27:35.069Z,1.87
2018-06-21T15:30:08.048Z,1.55
2018-06-21T15:32:39.539Z,1.60
2018-06-21T15:35:12.446Z,2.03
2018-06-21T15:37:45.477Z,2.08
2018-06-21T15:40:18.615Z,2.12
2018-06-21T15:42:49.975Z,1.83
2018-06-21T15:45:20.064Z,2.20
2018-06-21T15:47:50.827Z,2.05
2018-06-21T15:50:23.864Z,2.30
2018-06-21T15:52:55.381Z,2.53
2018-06-21T15:55:30.534Z,2.67
2018-06-21T15:58:02.597Z,3.25
2018-06-21T16:00:32.540Z,2.67
2018-06-21T16:03:06.950Z,2.47
2018-06-21T16:05:39.386Z,2.35
2018-06-21T16:08:09.236Z,2.00
2018-06-21T16:10:43.613Z,2.33
2018-06-21T16:13:17.536Z,2.95
2018-06-21T16:15:52.090Z,2.22
2018-06-21T16:18:24.935Z,2.65
2018-06-21T16:20:55.538Z,2.37
2018-06-21T16:23:27.022Z,2.55
2018-06-21T16:26:00.120Z,2.45
2018-06-21T16:28:31.616Z,2.70
2018-06-21T16:31:02.483Z,3.08
2018-06-21T16:33:32.493Z,2.58
2018-06-21T16:36:05.427Z,2.17
2018-06-21T16:38:39.896Z,2.47
2018-06-21T16:41:12.224Z,2.35
2018-06-21T16:43:45.419Z,2.53
2018-06-21T16:46:18.276Z,2.28
2018-06-21T16:48:51.313Z,2.05
2018-06-21T16:51:22.840Z,2.17
2018-06-21T16:53:54.284Z,2.30
2018-06-21T16:56:28.978Z,2.25
2018-06-21T16:59:00.365Z,2.10
2018-06-21T17:01:32.478Z,2.25
2018-06-21T17:04:06.775Z,2.53
2018-06-21T17:06:38.396Z,2.65
2018-06-21T17:09:14.288Z,2.33
2018-06-21T17:11:47.209Z,2.95
2018-06-21T17:14:21.884Z,2.25
2018-06-21T17:16:55.105Z,2.00
2018-06-21T17:19:26.521Z,2.58
2018-06-21T17:21:56.856Z,2.28
2018-06-21T17:24:31.713Z,2.47
2018-06-21T17:27:04.284Z,2.67
2018-06-21T17:29:37.545Z,2.25
2018-06-21T17:32:11.984Z,2.37
2018-06-21T17:34:43.531Z,2.35
2018-06-21T17:37:16.476Z,2.10
2018-06-21T17:39:49.607Z,2.08
2018-06-21T17:42:19.528Z,1.80
2018-06-21T17:44:53.970Z,2.28
2018-06-21T17:47:25.422Z,2.90
2018-06-21T17:49:56.207Z,2.42
2018-06-21T17:52:27.704Z,2.12
2018-06-21T17:55:00.053Z,1.50
2018-06-21T17:57:33.573Z,2.22
2018-06-21T18:00:06.079Z,2.00
2018-06-21T18:02:37.619Z,2.05
2018-06-21T18:05:12.116Z,2.42
2018-06-21T18:07:45.143Z,2.25
2018-06-21T18:10:16.716Z,2.20
2018-06-21T18:12:49.602Z,1.67
2018-06-21T18:15:24.151Z,2.17
2018-06-21T18:17:57.117Z,1.50
2018-06-21T18:20:30.213Z,1.77
2018-06-21T18:23:03.184Z,1.45
2018-06-21T18:25:37.776Z,2.00
2018-06-21T18:28:12.632Z,1.85
2018-06-21T18:30:47.187Z,2.08
2018-06-21T18:33:20.074Z,2.42
2018-06-21T18:35:54.626Z,1.98
2018-06-21T18:38:27.524Z,2.10
2018-06-21T18:41:00.616Z,2.10
2018-06-21T18:43:33.723Z,2.70
2018-06-21T18:46:08.116Z,2.10
2018-06-21T18:48:39.687Z,2.45
2018-06-21T18:51:11.285Z,2.45
2018-06-21T18:53:45.211Z,2.42
2018-06-21T18:56:19.734Z,2.10
2018-06-21T18:58:51.452Z,2.78
2018-06-21T19:01:23.490Z,2.42
2018-06-21T19:03:58.132Z,2.58
2018-06-21T19:06:49.004Z,3.00
2018-06-21T19:09:39.804Z,2.90
2018-06-21T19:12:12.972Z,2.03
2018-06-21T19:14:48.367Z,2.15
2018-06-21T19:17:22.871Z,2.67
2018-06-21T19:19:57.208Z,2.15
2018-06-21T19:22:28.826Z,2.20
2018-06-21T19:25:01.672Z,2.12
2018-06-21T19:27:33.276Z,1.85
2018-06-21T19:30:06.206Z,2.08
2018-06-21T19:32:40.879Z,2.50
2018-06-21T19:35:13.777Z,2.45
2018-06-21T19:37:48.489Z,1.90
2018-06-21T19:40:18.466Z,3.05
2018-06-21T19:42:52.923Z,2.30
2018-06-21T19:45:25.958Z,2.22
2018-06-21T19:48:00.838Z,2.35
2018-06-21T19:50:35.513Z,2.28
2018-06-21T19:53:09.902Z,2.08
2018-06-21T19:55:43.037Z,2.25
2018-06-21T19:58:17.434Z,1.90
2018-06-21T20:00:50.360Z,2.05
2018-06-21T20:03:24.858Z,2.60
2018-06-21T20:05:55.027Z,2.20
2018-06-21T20:08:28.169Z,1.85
2018-06-21T20:11:17.087Z,2.45
2018-06-21T20:13:50.055Z,2.37
2018-06-21T20:16:24.197Z,2.70
2018-06-21T20:18:55.901Z,2.10
2018-06-21T20:21:27.669Z,2.55
2018-06-21T20:23:59.251Z,2.22
2018-06-21T20:26:30.213Z,2.75
2018-06-21T20:29:01.384Z,1.77
2018-06-21T20:31:34.380Z,2.22
2018-06-21T20:34:08.043Z,2.08
2018-06-21T20:36:39.670Z,1.90
2018-06-21T20:39:12.725Z,2.05
2018-06-21T20:41:47.196Z,1.75
2018-06-21T20:44:21.719Z,2.00
2018-06-21T20:46:53.640Z,1.83
2018-06-21T20:49:26.700Z,2.10
2018-06-21T20:52:01.260Z,1.90
2018-06-21T20:54:35.943Z,2.50
2018-06-21T20:57:09.221Z,2.35
2018-06-21T20:59:44.328Z,2.78
2018-06-21T21:02:16.679Z,2.25
2018-06-21T21:05:15.417Z,1.80
2018-06-21T21:07:52.884Z,2.25
2018-06-21T21:10:25.932Z,1.80
2018-06-21T21:13:00.288Z,2.35
2018-06-21T21:15:32.082Z,2.03
2018-06-21T21:18:06.069Z,2.17
2018-06-21T21:20:37.674Z,2.53
2018-06-21T21:23:09.314Z,2.00
2018-06-21T21:25:42.242Z,2.40
2018-06-21T21:28:17.614Z,1.90
2018-06-21T21:30:49.663Z,2.55
2018-06-21T21:33:22.522Z,2.17
2018-06-21T21:35:53.947Z,2.17
2018-06-21T21:38:26.940Z,2.20
2018-06-21T21:40:59.854Z,2.30
2018-06-21T21:43:34.353Z,2.78
2018-06-21T21:46:08.704Z,2.50
2018-06-21T21:48:41.860Z,2.62
2018-06-21T21:51:15.902Z,2.95
2018-06-21T21:53:49.123Z,2.30
2018-06-21T21:56:22.389Z,1.95
2018-06-21T21:58:55.589Z,1.77
2018-06-21T22:01:27.025Z,1.90
2018-06-21T22:04:00.848Z,2.00
2018-06-21T22:06:32.393Z,2.17
2018-06-21T22:09:03.943Z,2.17
2018-06-21T22:11:36.097Z,2.40
2018-06-21T22:14:09.133Z,2.37
2018-06-21T22:16:43.230Z,2.28
2018-06-21T22:19:15.465Z,3.00
2018-06-21T22:21:48.951Z,2.28
2018-06-21T22:24:23.357Z,2.47
2018-06-21T22:26:56.397Z,1.87
2018-06-21T22:29:29.463Z,1.90
2018-06-21T22:31:59.620Z,2.30
2018-06-21T22:34:34.060Z,2.10
2018-06-21T22:37:06.860Z,1.70
2018-06-21T22:39:39.750Z,1.92
2018-06-21T22:42:13.034Z,2.35
2018-06-21T22:44:47.576Z,1.95
2018-06-21T22:47:16.714Z,1.98
2018-06-21T22:49:49.787Z,1.83
2018-06-21T22:52:24.236Z,2.03
2018-06-21T22:54:57.152Z,2.00
2018-06-21T22:57:31.728Z,1.92
2018-06-21T23:00:04.755Z,1.92
2018-06-21T23:02:39.554Z,2.15
2018-06-21T23:05:13.948Z,2.03
2018-06-21T23:07:45.805Z,2.17
2018-06-21T23:10:18.805Z,2.45
2018-06-21T23:12:53.251Z,1.65
2018-06-21T23:15:24.292Z,2.75
2018-06-21T23:17:57.491Z,2.03
2018-06-21T23:20:27.517Z,2.58
2018-06-21T23:23:00.538Z,2.65
2018-06-21T23:25:32.067Z,2.12
2018-06-21T23:28:03.676Z,2.33
2018-06-21T23:30:37.642Z,2.60
2018-06-21T23:33:12.072Z,2.20
2018-06-21T23:35:43.672Z,2.67
2018-06-21T23:38:18.212Z,2.30
2018-06-21T23:40:49.969Z,2.17
2018-06-21T23:43:20.644Z,3.20
2018-06-21T23:45:52.761Z,2.62
2018-06-21T23:48:25.823Z,2.67
2018-06-21T23:50:55.697Z,2.50
2018-06-21T23:53:28.599Z,2.00
2018-06-21T23:56:01.054Z,2.08
2018-06-21T23:58:34.258Z,2.30
